createdAt,value
2018-02-27T00:00:56.171Z,1013.71
2018-02-27T00:01:56.114Z,1013.68
2018-02-27T00:02:56.045Z,1013.67
2018-02-27T00:03:56.117Z,1013.67
2018-02-27T00:04:56.140Z,1013.71
2018-02-27T00:05:56.047Z,1013.68
2018-02-27T00:06:56.118Z,1013.63
2018-02-27T00:07:56.043Z,1013.63
2018-02-27T00:08:56.053Z,1013.69
2018-02-27T00:09:56.041Z,1013.67
2018-02-27T00:10:56.120Z,1013.57
2018-02-27T00:11:56.044Z,1013.62
2018-02-27T00:12:56.086Z,1013.66
2018-02-27T00:13:56.033Z,1013.60
2018-02-27T00:14:56.041Z,1013.56
2018-02-27T00:15:56.089Z,1013.65
2018-02-27T00:16:56.045Z,1013.57
2018-02-27T00:17:56.123Z,1013.55
2018-02-27T00:18:56.126Z,1013.57
2018-02-27T00:19:56.052Z,1013.54
2018-02-27T00:20:56.123Z,1013.55
2018-02-27T00:21:56.125Z,1013.56
2018-02-27T00:22:56.063Z,1013.51
2018-02-27T00:23:56.051Z,1013.52
2018-02-27T00:24:56.129Z,1013.50
2018-02-27T00:25:56.041Z,1013.50
2018-02-27T00:26:56.003Z,1013.49
2018-02-27T00:27:56.130Z,1013.48
2018-02-27T00:28:56.069Z,1013.49
2018-02-27T00:29:56.056Z,1013.46
2018-02-27T00:30:56.040Z,1013.47
2018-02-27T00:31:56.058Z,1013.48
2018-02-27T00:32:56.132Z,1013.42
2018-02-27T00:33:56.061Z,1013.43
2018-02-27T00:34:56.043Z,1013.46
2018-02-27T00:35:56.065Z,1013.45
2018-02-27T00:36:56.137Z,1013.37
2018-02-27T00:37:56.047Z,1013.36
2018-02-27T00:38:56.138Z,1013.33
2018-02-27T00:39:56.063Z,1013.37
2018-02-27T00:40:56.148Z,1013.33
2018-02-27T00:41:56.097Z,1013.33
2018-02-27T00:42:56.143Z,1013.28
2018-02-27T00:43:56.151Z,1013.31
2018-02-27T00:44:56.152Z,1013.26
2018-02-27T00:45:56.152Z,1013.29
2018-02-27T00:46:56.152Z,1013.30
2018-02-27T00:47:56.151Z,1013.35
2018-02-27T00:48:56.154Z,1013.33
2018-02-27T00:49:56.152Z,1013.31
2018-02-27T00:50:56.175Z,1013.34
2018-02-27T00:51:56.133Z,1013.33
2018-02-27T00:52:56.148Z,1013.35
2018-02-27T00:53:56.158Z,1013.36
2018-02-27T00:54:56.215Z,1013.40
2018-02-27T00:55:56.051Z,1013.40
2018-02-27T00:56:56.181Z,1013.39
2018-02-27T00:57:56.154Z,1013.34
2018-02-27T00:58:56.194Z,1013.36
2018-02-27T00:59:56.098Z,1013.31
2018-02-27T01:00:56.156Z,1013.29
2018-02-27T01:01:56.218Z,1013.31
2018-02-27T01:02:56.158Z,1013.27
2018-02-27T01:03:56.133Z,1013.28
2018-02-27T01:04:56.063Z,1013.28
2018-02-27T01:05:56.162Z,1013.27
2018-02-27T01:06:56.190Z,1013.22
2018-02-27T01:07:56.187Z,1013.26
2018-02-27T01:08:56.131Z,1013.24
2018-02-27T01:09:56.180Z,1013.23
2018-02-27T01:10:56.172Z,1013.19
2018-02-27T01:11:56.140Z,1013.20
2018-02-27T01:12:56.100Z,1013.20
2018-02-27T01:13:56.106Z,1013.17
2018-02-27T01:14:56.136Z,1013.20
2018-02-27T01:15:56.192Z,1013.17
2018-02-27T01:16:56.140Z,1013.16
2018-02-27T01:17:56.101Z,1013.14
2018-02-27T01:18:56.072Z,1013.15
2018-02-27T01:19:56.133Z,1013.11
2018-02-27T01:20:56.131Z,1013.12
2018-02-27T01:21:56.166Z,1013.12
2018-02-27T01:22:56.128Z,1013.08
2018-02-27T01:23:56.189Z,1013.09
2018-02-27T01:24:56.108Z,1013.12
2018-02-27T01:25:56.180Z,1013.04
2018-02-27T01:26:56.114Z,1013.09
2018-02-27T01:27:56.134Z,1013.11
2018-02-27T01:28:56.179Z,1013.07
2018-02-27T01:29:56.183Z,1013.12
2018-02-27T01:30:56.070Z,1013.03
2018-02-27T01:31:56.163Z,1012.99
2018-02-27T01:32:56.160Z,1013.03
2018-02-27T01:33:56.138Z,1013.00
2018-02-27T01:34:56.114Z,1013.02
2018-02-27T01:35:56.138Z,1013.00
2018-02-27T01:36:56.078Z,1013.00
2018-02-27T01:37:56.162Z,1013.01
2018-02-27T01:38:56.147Z,1013.08
2018-02-27T01:39:56.078Z,1013.07
2018-02-27T01:40:56.095Z,1013.06
2018-02-27T01:41:56.299Z,1013.09
2018-02-27T01:42:56.214Z,1013.00
2018-02-27T01:43:56.102Z,1013.07
2018-02-27T01:44:56.219Z,1013.04
2018-02-27T01:45:56.181Z,1013.04
2018-02-27T01:46:56.249Z,1013.01
2018-02-27T01:47:56.147Z,1013.01
2018-02-27T01:48:56.180Z,1013.01
2018-02-27T01:49:56.220Z,1013.03
2018-02-27T01:50:56.166Z,1012.99
2018-02-27T01:51:56.093Z,1013.01
2018-02-27T01:52:56.086Z,1012.97
2018-02-27T01:53:56.128Z,1013.00
2018-02-27T01:54:56.090Z,1012.97
2018-02-27T01:55:56.194Z,1012.96
2018-02-27T01:56:56.186Z,1012.97
2018-02-27T01:57:56.232Z,1012.95
2018-02-27T01:58:56.170Z,1012.90
2018-02-27T01:59:56.133Z,1012.92
2018-02-27T02:00:56.160Z,1012.91
2018-02-27T02:01:56.197Z,1012.89
2018-02-27T02:02:56.249Z,1012.89
2018-02-27T02:03:56.164Z,1012.85
2018-02-27T02:04:56.233Z,1012.81
2018-02-27T02:05:56.202Z,1012.82
2018-02-27T02:06:56.172Z,1012.81
2018-02-27T02:07:56.155Z,1012.82
2018-02-27T02:08:56.133Z,1012.79
2018-02-27T02:09:56.197Z,1012.83
2018-02-27T02:10:56.200Z,1012.84
2018-02-27T02:11:56.137Z,1012.79
2018-02-27T02:12:56.238Z,1012.79
2018-02-27T02:13:56.206Z,1012.81
2018-02-27T02:14:56.099Z,1012.79
2018-02-27T02:15:56.201Z,1012.83
2018-02-27T02:16:56.200Z,1012.77
2018-02-27T02:17:56.169Z,1012.82
2018-02-27T02:18:56.200Z,1012.74
2018-02-27T02:19:56.103Z,1012.78
2018-02-27T02:20:56.201Z,1012.78
2018-02-27T02:21:56.109Z,1012.74
2018-02-27T02:22:56.238Z,1012.72
2018-02-27T02:23:56.169Z,1012.66
2018-02-27T02:24:56.169Z,1012.67
2018-02-27T02:25:56.131Z,1012.68
2018-02-27T02:26:56.175Z,1012.71
2018-02-27T02:27:56.118Z,1012.74
2018-02-27T02:28:56.209Z,1012.70
2018-02-27T02:29:56.150Z,1012.69
2018-02-27T02:30:56.176Z,1012.68
2018-02-27T02:31:56.251Z,1012.71
2018-02-27T02:32:56.250Z,1012.70
2018-02-27T02:33:56.172Z,1012.71
2018-02-27T02:34:56.215Z,1012.66
2018-02-27T02:35:56.238Z,1012.67
2018-02-27T02:36:56.133Z,1012.63
2018-02-27T02:37:56.120Z,1012.68
2018-02-27T02:38:56.265Z,1012.67
2018-02-27T02:39:56.225Z,1012.63
2018-02-27T02:40:56.119Z,1012.61
2018-02-27T02:41:56.193Z,1012.60
2018-02-27T02:42:56.147Z,1012.61
2018-02-27T02:43:56.208Z,1012.60
2018-02-27T02:44:56.118Z,1012.56
2018-02-27T02:45:56.156Z,1012.55
2018-02-27T02:46:56.210Z,1012.62
2018-02-27T02:47:56.111Z,1012.61
2018-02-27T02:48:56.116Z,1012.58
2018-02-27T02:49:56.165Z,1012.57
2018-02-27T02:50:56.227Z,1012.62
2018-02-27T02:51:56.191Z,1012.68
2018-02-27T02:52:56.146Z,1012.63
2018-02-27T02:53:56.258Z,1012.62
2018-02-27T02:54:56.189Z,1012.61
2018-02-27T02:55:56.258Z,1012.58
2018-02-27T02:56:56.253Z,1012.60
2018-02-27T02:57:56.225Z,1012.59
2018-02-27T02:58:56.256Z,1012.61
2018-02-27T02:59:56.268Z,1012.57
2018-02-27T03:00:56.222Z,1012.59
2018-02-27T03:01:56.104Z,1012.62
2018-02-27T03:02:56.191Z,1012.59
2018-02-27T03:03:56.227Z,1012.53
2018-02-27T03:04:56.193Z,1012.62
2018-02-27T03:05:56.226Z,1012.63
2018-02-27T03:06:56.221Z,1012.64
2018-02-27T03:07:56.122Z,1012.61
2018-02-27T03:08:56.180Z,1012.59
2018-02-27T03:09:56.169Z,1012.56
2018-02-27T03:10:56.173Z,1012.57
2018-02-27T03:11:56.204Z,1012.61
2018-02-27T03:12:56.211Z,1012.55
2018-02-27T03:13:56.235Z,1012.61
2018-02-27T03:14:56.218Z,1012.53
2018-02-27T03:15:56.235Z,1012.57
2018-02-27T03:16:56.241Z,1012.59
2018-02-27T03:17:56.203Z,1012.54
2018-02-27T03:18:56.214Z,1012.53
2018-02-27T03:19:56.180Z,1012.54
2018-02-27T03:20:56.171Z,1012.54
2018-02-27T03:21:56.179Z,1012.52
2018-02-27T03:22:56.177Z,1012.52
2018-02-27T03:23:56.177Z,1012.47
2018-02-27T03:24:56.247Z,1012.53
2018-02-27T03:25:56.233Z,1012.47
2018-02-27T03:26:56.245Z,1012.49
2018-02-27T03:27:56.250Z,1012.45
2018-02-27T03:28:56.205Z,1012.43
2018-02-27T03:29:56.203Z,1012.42
2018-02-27T03:30:56.213Z,1012.43
2018-02-27T03:31:56.279Z,1012.44
2018-02-27T03:32:56.250Z,1012.42
2018-02-27T03:33:56.309Z,1012.43
2018-02-27T03:34:56.259Z,1012.43
2018-02-27T03:35:56.246Z,1012.43
2018-02-27T03:36:56.175Z,1012.44
2018-02-27T03:37:56.251Z,1012.42
2018-02-27T03:38:56.291Z,1012.40
2018-02-27T03:39:56.234Z,1012.41
2018-02-27T03:40:56.308Z,1012.45
2018-02-27T03:41:56.250Z,1012.39
2018-02-27T03:42:56.178Z,1012.38
2018-02-27T03:43:56.195Z,1012.41
2018-02-27T03:44:56.219Z,1012.36
2018-02-27T03:45:56.281Z,1012.35
2018-02-27T03:46:56.173Z,1012.39
2018-02-27T03:47:56.241Z,1012.36
2018-02-27T03:48:56.203Z,1012.35
2018-02-27T03:49:56.288Z,1012.31
2018-02-27T03:50:56.175Z,1012.27
2018-02-27T03:51:56.164Z,1012.30
2018-02-27T03:52:56.174Z,1012.30
2018-02-27T03:53:56.256Z,1012.32
2018-02-27T03:54:56.256Z,1012.24
2018-02-27T03:55:56.256Z,1012.23
2018-02-27T03:56:56.178Z,1012.20
2018-02-27T03:57:56.256Z,1012.22
2018-02-27T03:58:56.190Z,1012.19
2018-02-27T03:59:56.169Z,1012.17
2018-02-27T04:00:56.237Z,1012.18
2018-02-27T04:01:56.313Z,1012.18
2018-02-27T04:02:56.290Z,1012.13
2018-02-27T04:03:56.263Z,1012.16
2018-02-27T04:04:56.190Z,1012.17
2018-02-27T04:05:56.265Z,1012.14
2018-02-27T04:06:56.309Z,1012.13
2018-02-27T04:07:56.248Z,1012.17
2018-02-27T04:08:56.204Z,1012.17
2018-02-27T04:09:56.297Z,1012.15
2018-02-27T04:10:56.189Z,1012.16
2018-02-27T04:11:56.293Z,1012.15
2018-02-27T04:12:56.299Z,1012.19
2018-02-27T04:13:56.310Z,1012.17
2018-02-27T04:14:56.176Z,1012.17
2018-02-27T04:15:56.210Z,1012.19
2018-02-27T04:16:56.244Z,1012.20
2018-02-27T04:17:56.235Z,1012.19
2018-02-27T04:18:56.183Z,1012.19
2018-02-27T04:19:56.302Z,1012.22
2018-02-27T04:20:56.276Z,1012.17
2018-02-27T04:21:56.280Z,1012.23
2018-02-27T04:22:56.289Z,1012.17
2018-02-27T04:23:56.314Z,1012.19
2018-02-27T04:24:56.336Z,1012.19
2018-02-27T04:25:56.240Z,1012.15
2018-02-27T04:26:56.238Z,1012.17
2018-02-27T04:27:56.247Z,1012.13
2018-02-27T04:28:56.233Z,1012.17
2018-02-27T04:29:56.263Z,1012.14
2018-02-27T04:30:56.134Z,1012.15
2018-02-27T04:31:56.207Z,1012.16
2018-02-27T04:32:56.232Z,1012.19
2018-02-27T04:33:56.138Z,1012.15
2018-02-27T04:34:56.141Z,1012.16
2018-02-27T04:35:56.233Z,1012.17
2018-02-27T04:36:56.193Z,1012.17
2018-02-27T04:37:56.191Z,1012.17
2018-02-27T04:38:56.206Z,1012.19
2018-02-27T04:39:56.147Z,1012.21
2018-02-27T04:40:56.281Z,1012.19
2018-02-27T04:41:56.287Z,1012.18
2018-02-27T04:42:56.213Z,1012.18
2018-02-27T04:43:56.208Z,1012.23
2018-02-27T04:44:56.286Z,1012.26
2018-02-27T04:45:56.275Z,1012.25
2018-02-27T04:46:56.197Z,1012.27
2018-02-27T04:47:56.213Z,1012.30
2018-02-27T04:48:56.168Z,1012.27
2018-02-27T04:49:56.285Z,1012.25
2018-02-27T04:50:56.201Z,1012.26
2018-02-27T04:51:56.289Z,1012.24
2018-02-27T04:52:56.202Z,1012.24
2018-02-27T04:53:56.187Z,1012.27
2018-02-27T04:54:56.228Z,1012.28
2018-02-27T04:55:56.261Z,1012.22
2018-02-27T04:56:56.226Z,1012.21
2018-02-27T04:57:56.203Z,1012.20
2018-02-27T04:58:56.286Z,1012.28
2018-02-27T04:59:56.262Z,1012.22
2018-02-27T05:00:56.292Z,1012.21
2018-02-27T05:01:56.227Z,1012.26
2018-02-27T05:02:56.295Z,1012.22
2018-02-27T05:03:56.218Z,1012.32
2018-02-27T05:04:56.297Z,1012.25
2018-02-27T05:05:56.300Z,1012.27
2018-02-27T05:06:56.251Z,1012.24
2018-02-27T05:07:56.225Z,1012.25
2018-02-27T05:08:56.305Z,1012.27
2018-02-27T05:09:56.232Z,1012.24
2018-02-27T05:10:56.221Z,1012.23
2018-02-27T05:11:56.211Z,1012.27
2018-02-27T05:12:56.211Z,1012.23
2018-02-27T05:13:56.300Z,1012.24
2018-02-27T05:14:56.302Z,1012.22
2018-02-27T05:15:56.181Z,1012.23
2018-02-27T05:16:56.303Z,1012.22
2018-02-27T05:17:56.302Z,1012.23
2018-02-27T05:18:56.227Z,1012.24
2018-02-27T05:19:56.215Z,1012.23
2018-02-27T05:20:56.362Z,1012.21
2018-02-27T05:21:56.373Z,1012.22
2018-02-27T05:22:56.320Z,1012.23
2018-02-27T05:23:56.346Z,1012.20
2018-02-27T05:24:56.278Z,1012.21
2018-02-27T05:25:56.272Z,1012.22
2018-02-27T05:26:56.296Z,1012.17
2018-02-27T05:27:56.287Z,1012.21
2018-02-27T05:28:56.323Z,1012.17
2018-02-27T05:29:56.223Z,1012.17
2018-02-27T05:30:56.354Z,1012.18
2018-02-27T05:31:56.284Z,1012.19
2018-02-27T05:32:56.235Z,1012.20
2018-02-27T05:33:56.287Z,1012.20
2018-02-27T05:34:56.302Z,1012.22
2018-02-27T05:35:56.346Z,1012.20
2018-02-27T05:36:56.295Z,1012.20
2018-02-27T05:37:56.345Z,1012.21
2018-02-27T05:38:56.247Z,1012.18
2018-02-27T05:39:56.345Z,1012.15
2018-02-27T05:40:56.358Z,1012.15
2018-02-27T05:41:56.350Z,1012.11
2018-02-27T05:42:56.328Z,1012.11
2018-02-27T05:43:56.410Z,1012.11
2018-02-27T05:44:56.330Z,1012.15
2018-02-27T05:45:56.247Z,1012.17
2018-02-27T05:46:56.257Z,1012.15
2018-02-27T05:47:56.296Z,1012.15
2018-02-27T05:48:56.266Z,1012.17
2018-02-27T05:49:56.296Z,1012.19
2018-02-27T05:50:56.218Z,1012.18
2018-02-27T05:51:56.237Z,1012.21
2018-02-27T05:52:56.327Z,1012.21
2018-02-27T05:53:56.326Z,1012.21
2018-02-27T05:54:56.325Z,1012.21
2018-02-27T05:55:56.326Z,1012.21
2018-02-27T05:56:56.298Z,1012.19
2018-02-27T05:57:56.240Z,1012.24
2018-02-27T05:58:56.330Z,1012.24
2018-02-27T05:59:56.259Z,1012.23
2018-02-27T06:00:56.268Z,1012.27
2018-02-27T06:01:56.269Z,1012.28
2018-02-27T06:02:56.277Z,1012.27
2018-02-27T06:03:56.269Z,1012.25
2018-02-27T06:04:56.355Z,1012.27
2018-02-27T06:05:56.350Z,1012.23
2018-02-27T06:06:56.270Z,1012.23
2018-02-27T06:07:56.306Z,1012.27
2018-02-27T06:08:56.316Z,1012.29
2018-02-27T06:09:56.345Z,1012.30
2018-02-27T06:10:56.303Z,1012.30
2018-02-27T06:11:56.289Z,1012.33
2018-02-27T06:12:56.346Z,1012.30
2018-02-27T06:13:56.374Z,1012.33
2018-02-27T06:14:56.325Z,1012.36
2018-02-27T06:15:56.371Z,1012.30
2018-02-27T06:16:56.285Z,1012.33
2018-02-27T06:17:56.389Z,1012.34
2018-02-27T06:18:56.354Z,1012.29
2018-02-27T06:19:56.306Z,1012.34
2018-02-27T06:20:56.288Z,1012.34
2018-02-27T06:21:56.331Z,1012.33
2018-02-27T06:22:56.249Z,1012.32
2018-02-27T06:23:56.256Z,1012.33
2018-02-27T06:24:56.348Z,1012.34
2018-02-27T06:25:56.326Z,1012.37
2018-02-27T06:26:56.413Z,1012.33
2018-02-27T06:27:56.350Z,1012.32
2018-02-27T06:28:56.350Z,1012.35
2018-02-27T06:29:56.349Z,1012.41
2018-02-27T06:30:56.359Z,1012.41
2018-02-27T06:31:56.217Z,1012.38
2018-02-27T06:32:56.220Z,1012.38
2018-02-27T06:33:56.248Z,1012.39
2018-02-27T06:34:56.285Z,1012.37
2018-02-27T06:35:56.257Z,1012.34
2018-02-27T06:36:56.290Z,1012.41
2018-02-27T06:37:56.320Z,1012.40
2018-02-27T06:38:56.255Z,1012.42
2018-02-27T06:39:56.297Z,1012.40
2018-02-27T06:40:56.293Z,1012.39
2018-02-27T06:41:56.283Z,1012.46
2018-02-27T06:42:56.423Z,1012.47
2018-02-27T06:43:56.326Z,1012.46
2018-02-27T06:44:56.280Z,1012.47
2018-02-27T06:45:56.326Z,1012.47
2018-02-27T06:46:56.284Z,1012.49
2018-02-27T06:47:56.285Z,1012.44
2018-02-27T06:48:56.396Z,1012.46
2018-02-27T06:49:56.373Z,1012.43
2018-02-27T06:50:56.327Z,1012.45
2018-02-27T06:51:56.354Z,1012.47
2018-02-27T06:52:56.272Z,1012.47
2018-02-27T06:53:56.397Z,1012.49
2018-02-27T06:54:56.356Z,1012.47
2018-02-27T06:55:56.274Z,1012.44
2018-02-27T06:56:56.356Z,1012.39
2018-02-27T06:57:56.365Z,1012.38
2018-02-27T06:58:56.365Z,1012.38
2018-02-27T06:59:56.361Z,1012.38
2018-02-27T07:00:56.321Z,1012.33
2018-02-27T07:01:56.328Z,1012.31
2018-02-27T07:02:56.350Z,1012.26
2018-02-27T07:03:56.263Z,1012.25
2018-02-27T07:04:56.261Z,1012.28
2018-02-27T07:05:56.309Z,1012.27
2018-02-27T07:06:56.352Z,1012.27
2018-02-27T07:07:56.355Z,1012.24
2018-02-27T07:08:56.299Z,1012.21
2018-02-27T07:09:56.327Z,1012.26
2018-02-27T07:10:56.337Z,1012.22
2018-02-27T07:11:56.377Z,1012.25
2018-02-27T07:12:56.350Z,1012.29
2018-02-27T07:13:56.341Z,1012.25
2018-02-27T07:14:56.302Z,1012.29
2018-02-27T07:15:56.382Z,1012.26
2018-02-27T07:16:56.384Z,1012.34
2018-02-27T07:17:56.385Z,1012.27
2018-02-27T07:18:56.380Z,1012.27
2018-02-27T07:19:56.285Z,1012.29
2018-02-27T07:20:56.422Z,1012.31
2018-02-27T07:21:56.322Z,1012.33
2018-02-27T07:22:56.420Z,1012.34
2018-02-27T07:23:56.387Z,1012.29
2018-02-27T07:24:56.384Z,1012.31
2018-02-27T07:25:56.305Z,1012.29
2018-02-27T07:26:56.390Z,1012.32
2018-02-27T07:27:56.363Z,1012.31
2018-02-27T07:28:56.369Z,1012.32
2018-02-27T07:29:56.389Z,1012.34
2018-02-27T07:30:56.423Z,1012.38
2018-02-27T07:31:56.350Z,1012.36
2018-02-27T07:32:56.372Z,1012.33
2018-02-27T07:33:56.416Z,1012.34
2018-02-27T07:34:56.356Z,1012.33
2018-02-27T07:35:56.390Z,1012.34
2018-02-27T07:36:56.293Z,1012.35
2018-02-27T07:37:56.468Z,1012.36
2018-02-27T07:38:56.354Z,1012.30
2018-02-27T07:39:56.296Z,1012.33
2018-02-27T07:40:56.396Z,1012.31
2018-02-27T07:41:56.455Z,1012.33
2018-02-27T07:42:56.318Z,1012.31
2018-02-27T07:43:56.425Z,1012.32
2018-02-27T07:44:56.379Z,1012.28
2018-02-27T07:45:56.431Z,1012.28
2018-02-27T07:46:56.396Z,1012.27
2018-02-27T07:47:56.384Z,1012.29
2018-02-27T07:48:56.427Z,1012.27
2018-02-27T07:49:56.301Z,1012.27
2018-02-27T07:50:56.378Z,1012.27
2018-02-27T07:51:56.411Z,1012.28
2018-02-27T07:52:56.439Z,1012.28
2018-02-27T07:53:56.388Z,1012.28
2018-02-27T07:54:56.378Z,1012.34
2018-02-27T07:55:56.325Z,1012.31
2018-02-27T07:56:56.408Z,1012.29
2018-02-27T07:57:56.431Z,1012.26
2018-02-27T07:58:56.366Z,1012.29
2018-02-27T07:59:56.449Z,1012.30
2018-02-27T08:00:56.444Z,1012.31
2018-02-27T08:01:56.409Z,1012.31
2018-02-27T08:02:56.314Z,1012.28
2018-02-27T08:03:56.412Z,1012.32
2018-02-27T08:04:56.308Z,1012.24
2018-02-27T08:05:56.432Z,1012.24
2018-02-27T08:06:56.440Z,1012.28
2018-02-27T08:07:56.383Z,1012.31
2018-02-27T08:08:56.454Z,1012.28
2018-02-27T08:09:56.388Z,1012.27
2018-02-27T08:10:56.414Z,1012.29
2018-02-27T08:11:56.361Z,1012.34
2018-02-27T08:12:56.425Z,1012.33
2018-02-27T08:13:56.420Z,1012.34
2018-02-27T08:14:56.349Z,1012.32
2018-02-27T08:15:56.350Z,1012.25
2018-02-27T08:16:56.352Z,1012.27
2018-02-27T08:17:56.356Z,1012.28
2018-02-27T08:18:56.350Z,1012.23
2018-02-27T08:19:56.426Z,1012.26
2018-02-27T08:20:56.421Z,1012.25
2018-02-27T08:21:56.367Z,1012.24
2018-02-27T08:22:56.451Z,1012.21
2018-02-27T08:23:56.484Z,1012.25
2018-02-27T08:24:56.453Z,1012.20
2018-02-27T08:25:56.420Z,1012.24
2018-02-27T08:26:56.361Z,1012.22
2018-02-27T08:27:56.430Z,1012.16
2018-02-27T08:28:56.332Z,1012.17
2018-02-27T08:29:56.331Z,1012.17
2018-02-27T08:30:56.332Z,1012.20
2018-02-27T08:31:56.407Z,1012.14
2018-02-27T08:32:56.357Z,1012.17
2018-02-27T08:33:56.432Z,1012.15
2018-02-27T08:34:56.363Z,1012.13
2018-02-27T08:35:56.433Z,1012.15
2018-02-27T08:36:56.435Z,1012.16
2018-02-27T08:37:56.375Z,1012.13
2018-02-27T08:38:56.434Z,1012.08
2018-02-27T08:39:56.435Z,1012.11
2018-02-27T08:40:56.320Z,1012.12
2018-02-27T08:41:56.412Z,1012.09
2018-02-27T08:42:56.398Z,1012.11
2018-02-27T08:43:56.404Z,1012.11
2018-02-27T08:44:56.460Z,1012.15
2018-02-27T08:45:56.357Z,1012.12
2018-02-27T08:46:56.334Z,1012.12
2018-02-27T08:47:56.357Z,1012.16
2018-02-27T08:48:56.513Z,1012.16
2018-02-27T08:49:56.434Z,1012.17
2018-02-27T08:50:56.458Z,1012.13
2018-02-27T08:51:56.442Z,1012.14
2018-02-27T08:52:56.370Z,1012.11
2018-02-27T08:53:56.378Z,1012.09
2018-02-27T08:54:56.402Z,1012.06
2018-02-27T08:55:56.446Z,1012.11
2018-02-27T08:56:56.388Z,1012.10
2018-02-27T08:57:56.447Z,1012.13
2018-02-27T08:58:56.379Z,1012.16
2018-02-27T08:59:56.377Z,1012.11
2018-02-27T09:00:56.492Z,1012.07
2018-02-27T09:01:56.461Z,1012.08
2018-02-27T09:02:56.388Z,1012.08
2018-02-27T09:03:56.459Z,1012.09
2018-02-27T09:04:56.446Z,1012.06
2018-02-27T09:05:56.474Z,1012.08
2018-02-27T09:06:56.352Z,1012.03
2018-02-27T09:07:56.387Z,1011.99
2018-02-27T09:08:56.421Z,1012.01
2018-02-27T09:09:56.415Z,1011.98
2018-02-27T09:10:56.509Z,1011.99
2018-02-27T09:11:56.454Z,1011.96
2018-02-27T09:12:56.418Z,1011.94
2018-02-27T09:13:56.431Z,1011.90
2018-02-27T09:14:56.370Z,1011.87
2018-02-27T09:15:56.489Z,1011.92
2018-02-27T09:16:56.492Z,1011.89
2018-02-27T09:17:56.353Z,1011.86
2018-02-27T09:18:56.424Z,1011.83
2018-02-27T09:19:56.528Z,1011.78
2018-02-27T09:20:56.464Z,1011.80
2018-02-27T09:21:56.421Z,1011.76
2018-02-27T09:22:56.393Z,1011.75
2018-02-27T09:23:56.461Z,1011.76
2018-02-27T09:24:56.393Z,1011.72
2018-02-27T09:25:56.398Z,1011.69
2018-02-27T09:26:56.391Z,1011.75
2018-02-27T09:27:56.390Z,1011.68
2018-02-27T09:28:56.391Z,1011.69
2018-02-27T09:29:56.399Z,1011.69
2018-02-27T09:30:56.396Z,1011.65
2018-02-27T09:31:56.489Z,1011.61
2018-02-27T09:32:56.463Z,1011.62
2018-02-27T09:33:56.420Z,1011.61
2018-02-27T09:34:56.529Z,1011.62
2018-02-27T09:35:56.493Z,1011.62
2018-02-27T09:36:56.440Z,1011.63
2018-02-27T09:37:56.492Z,1011.57
2018-02-27T09:38:56.464Z,1011.63
2018-02-27T09:39:56.429Z,1011.57
2018-02-27T09:40:56.466Z,1011.59
2018-02-27T09:41:56.403Z,1011.62
2018-02-27T09:42:56.476Z,1011.56
2018-02-27T09:43:56.405Z,1011.53
2018-02-27T09:44:56.471Z,1011.52
2018-02-27T09:45:56.469Z,1011.52
2018-02-27T09:46:56.405Z,1011.53
2018-02-27T09:47:56.471Z,1011.52
2018-02-27T09:48:56.408Z,1011.52
2018-02-27T09:49:56.476Z,1011.52
2018-02-27T09:50:56.402Z,1011.48
2018-02-27T09:51:56.472Z,1011.51
2018-02-27T09:52:56.402Z,1011.54
2018-02-27T09:53:56.482Z,1011.53
2018-02-27T09:54:56.503Z,1011.52
2018-02-27T09:55:56.503Z,1011.49
2018-02-27T09:56:57.416Z,1011.51
2018-02-27T09:57:56.447Z,1011.52
2018-02-27T09:58:56.381Z,1011.49
2018-02-27T09:59:56.464Z,1011.45
2018-02-27T10:00:56.502Z,1011.45
2018-02-27T10:01:56.436Z,1011.42
2018-02-27T10:02:56.518Z,1011.41
2018-02-27T10:03:56.444Z,1011.41
2018-02-27T10:04:56.502Z,1011.37
2018-02-27T10:05:56.381Z,1011.37
2018-02-27T10:06:56.484Z,1011.35
2018-02-27T10:07:56.482Z,1011.35
2018-02-27T10:08:56.483Z,1011.31
2018-02-27T10:09:56.558Z,1011.34
2018-02-27T10:10:56.450Z,1011.33
2018-02-27T10:11:56.525Z,1011.35
2018-02-27T10:12:56.484Z,1011.39
2018-02-27T10:13:56.455Z,1011.32
2018-02-27T10:14:56.487Z,1011.32
2018-02-27T10:15:56.463Z,1011.36
2018-02-27T10:16:56.491Z,1011.31
2018-02-27T10:17:56.507Z,1011.30
2018-02-27T10:18:56.531Z,1011.27
2018-02-27T10:19:56.454Z,1011.33
2018-02-27T10:20:56.493Z,1011.31
2018-02-27T10:21:56.490Z,1011.29
2018-02-27T10:22:56.417Z,1011.35
2018-02-27T10:23:56.491Z,1011.31
2018-02-27T10:24:56.519Z,1011.31
2018-02-27T10:25:56.495Z,1011.32
2018-02-27T10:26:56.428Z,1011.30
2018-02-27T10:27:56.496Z,1011.27
2018-02-27T10:28:56.432Z,1011.28
2018-02-27T10:29:56.501Z,1011.27
2018-02-27T10:30:56.499Z,1011.29
2018-02-27T10:31:56.435Z,1011.27
2018-02-27T10:32:56.368Z,1011.27
2018-02-27T10:33:56.433Z,1011.24
2018-02-27T10:34:56.423Z,1011.19
2018-02-27T10:35:56.503Z,1011.20
2018-02-27T10:36:56.486Z,1011.22
2018-02-27T10:37:56.478Z,1011.20
2018-02-27T10:38:56.393Z,1011.20
2018-02-27T10:39:56.364Z,1011.19
2018-02-27T10:40:56.358Z,1011.17
2018-02-27T10:41:56.439Z,1011.14
2018-02-27T10:42:56.438Z,1011.16
2018-02-27T10:43:56.509Z,1011.14
2018-02-27T10:44:56.435Z,1011.15
2018-02-27T10:45:56.516Z,1011.15
2018-02-27T10:46:56.444Z,1011.16
2018-02-27T10:47:56.509Z,1011.17
2018-02-27T10:48:56.509Z,1011.14
2018-02-27T10:49:56.471Z,1011.11
2018-02-27T10:50:56.519Z,1011.12
2018-02-27T10:51:56.534Z,1011.12
2018-02-27T10:52:56.411Z,1011.15
2018-02-27T10:53:56.482Z,1011.13
2018-02-27T10:54:56.545Z,1011.13
2018-02-27T10:55:56.512Z,1011.10
2018-02-27T10:56:56.475Z,1011.07
2018-02-27T10:57:56.419Z,1011.05
2018-02-27T10:58:56.484Z,1011.05
2018-02-27T10:59:56.490Z,1011.03
2018-02-27T11:00:56.513Z,1011.06
2018-02-27T11:01:56.486Z,1011.05
2018-02-27T11:02:56.545Z,1011.04
2018-02-27T11:03:56.417Z,1011.02
2018-02-27T11:04:56.425Z,1011.06
2018-02-27T11:05:56.557Z,1011.03
2018-02-27T11:06:56.439Z,1011.01
2018-02-27T11:07:56.476Z,1011.04
2018-02-27T11:08:56.526Z,1010.99
2018-02-27T11:09:56.555Z,1010.98
2018-02-27T11:10:56.522Z,1010.98
2018-02-27T11:11:56.442Z,1010.98
2018-02-27T11:12:56.528Z,1010.92
2018-02-27T11:13:56.394Z,1010.97
2018-02-27T11:14:56.519Z,1010.95
2018-02-27T11:15:56.457Z,1010.92
2018-02-27T11:16:56.431Z,1010.85
2018-02-27T11:17:56.515Z,1010.85
2018-02-27T11:19:56.471Z,1010.83
2018-02-27T11:20:56.447Z,1010.85
2018-02-27T11:21:56.457Z,1010.84
2018-02-27T11:22:56.530Z,1010.84
2018-02-27T11:23:56.466Z,1010.83
2018-02-27T11:24:56.461Z,1010.77
2018-02-27T11:25:56.534Z,1010.78
2018-02-27T11:26:56.465Z,1010.76
2018-02-27T11:27:56.467Z,1010.75
2018-02-27T11:28:56.467Z,1010.73
2018-02-27T11:29:56.531Z,1010.69
2018-02-27T11:30:56.533Z,1010.75
2018-02-27T11:31:56.427Z,1010.72
2018-02-27T11:32:56.405Z,1010.70
2018-02-27T11:33:56.485Z,1010.69
2018-02-27T11:34:56.513Z,1010.67
2018-02-27T11:35:56.405Z,1010.67
2018-02-27T11:36:56.493Z,1010.70
2018-02-27T11:37:56.430Z,1010.62
2018-02-27T11:38:56.512Z,1010.61
2018-02-27T11:39:56.463Z,1010.53
2018-02-27T11:40:56.411Z,1010.56
2018-02-27T11:41:56.561Z,1010.53
2018-02-27T11:42:56.441Z,1010.55
2018-02-27T11:43:56.510Z,1010.51
2018-02-27T11:44:56.573Z,1010.59
2018-02-27T11:45:56.542Z,1010.53
2018-02-27T11:46:56.482Z,1010.52
2018-02-27T11:47:56.514Z,1010.53
2018-02-27T11:48:56.501Z,1010.50
2018-02-27T11:49:56.507Z,1010.43
2018-02-27T11:50:56.452Z,1010.42
2018-02-27T11:51:56.549Z,1010.44
2018-02-27T11:52:56.480Z,1010.39
2018-02-27T11:53:56.553Z,1010.45
2018-02-27T11:54:56.499Z,1010.38
2018-02-27T11:55:56.547Z,1010.39
2018-02-27T11:56:56.547Z,1010.41
2018-02-27T11:57:56.550Z,1010.40
2018-02-27T11:58:56.481Z,1010.36
2018-02-27T11:59:56.487Z,1010.32
2018-02-27T12:00:56.554Z,1010.29
2018-02-27T12:01:56.440Z,1010.29
2018-02-27T12:02:56.443Z,1010.30
2018-02-27T12:03:56.513Z,1010.25
2018-02-27T12:04:56.411Z,1010.30
2018-02-27T12:05:56.449Z,1010.27
2018-02-27T12:06:56.540Z,1010.22